Time;durP1;ratioP1;P1;durP2;ratioP2;P2;SDS_P1;SDS_P2;PMS_P1;PMS_P2;Temp;Humidity;BMP_temperature;BMP_pressure;BME280_temperature;BME280_humidity;BME280_pressure;Samples;Min_cycle;Max_cycle;Signal;HPM_P1;HPM_P2
2023/05/25 00:01:18;;;;;;;8.13;3.33;;;11.40;99.90;;;;;;5136088;27;20046;-77
2023/05/25 00:03:44;;;;;;;11.15;3.92;;;11.40;99.90;;;;;;5135994;27;20055;-77
2023/05/25 00:06:11;;;;;;;9.65;3.55;;;11.40;99.90;;;;;;5136240;27;20054;-76
2023/05/25 00:08:40;;;;;;;14.52;4.45;;;11.50;99.90;;;;;;5136074;27;20082;-77
2023/05/25 00:11:06;;;;;;;15.25;4.57;;;11.50;99.90;;;;;;5136359;27;20103;-76
2023/05/25 00:13:31;;;;;;;11.38;3.85;;;11.50;99.90;;;;;;5136083;27;20043;-77
2023/05/25 00:15:57;;;;;;;12.43;4.40;;;11.40;99.90;;;;;;5136130;27;20043;-76
2023/05/25 00:18:32;;;;;;;9.23;3.70;;;11.50;99.90;;;;;;5136171;27;20440;-77
2023/05/25 00:21:04;;;;;;;11.82;4.13;;;11.50;99.90;;;;;;5136149;27;20564;-77
2023/05/25 00:23:30;;;;;;;14.50;4.20;;;11.50;99.90;;;;;;5135714;27;20390;-77
2023/05/25 00:25:56;;;;;;;16.02;3.72;;;11.50;99.90;;;;;;5135927;27;20031;-77
2023/05/25 00:28:21;;;;;;;13.00;3.70;;;11.40;99.90;;;;;;5135519;27;20548;-77
2023/05/25 00:30:47;;;;;;;10.85;4.15;;;11.40;99.90;;;;;;5135900;27;20239;-76
2023/05/25 00:33:14;;;;;;;11.88;4.05;;;11.50;99.90;;;;;;5135780;27;20404;-77
2023/05/25 00:35:41;;;;;;;14.32;3.80;;;11.50;99.90;;;;;;5135841;27;20082;-77
2023/05/25 00:38:17;;;;;;;10.90;4.45;;;11.50;99.90;;;;;;5135885;27;20115;-77
2023/05/25 00:40:44;;;;;;;8.00;3.92;;;11.50;99.90;;;;;;5135368;27;20039;-77
2023/05/25 00:43:11;;;;;;;8.10;4.45;;;11.50;99.90;;;;;;5135353;27;20047;-76
2023/05/25 00:45:37;;;;;;;8.60;4.38;;;11.50;99.90;;;;;;5135719;27;20065;-76
2023/05/25 00:48:04;;;;;;;11.18;4.65;;;11.50;99.90;;;;;;5135686;27;20050;-77
2023/05/25 00:50:41;;;;;;;10.95;3.70;;;11.50;99.90;;;;;;5136289;27;20039;-77
2023/05/25 00:53:08;;;;;;;11.10;3.33;;;11.50;99.90;;;;;;5135273;27;20387;-76
2023/05/25 00:56:13;;;;;;;14.43;3.80;;;11.50;99.90;;;;;;5135371;27;20043;-76
2023/05/25 00:58:41;;;;;;;9.93;3.35;;;11.60;99.90;;;;;;5135209;27;20043;-76
2023/05/25 01:01:11;;;;;;;15.27;4.10;;;11.60;99.90;;;;;;5135060;27;20395;-77
2023/05/25 01:03:41;;;;;;;14.18;4.28;;;11.60;99.90;;;;;;5134719;27;20175;-77
2023/05/25 01:06:13;;;;;;;10.90;4.10;;;11.60;99.90;;;;;;5133663;27;20398;-76
2023/05/25 01:08:42;;;;;;;7.30;3.65;;;11.60;99.90;;;;;;5134920;27;20395;-77
2023/05/25 01:11:11;;;;;;;13.52;4.18;;;11.50;99.90;;;;;;5135168;27;20042;-76
2023/05/25 01:13:38;;;;;;;10.63;4.38;;;11.50;99.90;;;;;;5136081;27;20035;-76
2023/05/25 01:16:08;;;;;;;14.32;4.07;;;11.50;99.90;;;;;;5134830;27;20053;-76
2023/05/25 01:18:33;;;;;;;13.70;3.78;;;11.50;99.90;;;;;;5134781;27;20043;-77
2023/05/25 01:21:32;;;;;;;10.82;4.47;;;11.50;99.90;;;;;;5134937;27;20368;-76
2023/05/25 01:24:32;;;;;;;11.00;3.90;;;11.50;99.90;;;;;;5135767;27;20050;-76
2023/05/25 01:27:11;;;;;;;12.30;4.30;;;11.60;99.90;;;;;;5116772;27;20054;-77
2023/05/25 01:29:40;;;;;;;14.38;4.30;;;11.50;99.90;;;;;;5134518;27;20039;-76
2023/05/25 01:32:07;;;;;;;10.10;3.75;;;11.50;99.90;;;;;;5134453;27;20510;-77
2023/05/25 01:34:33;;;;;;;15.40;4.13;;;11.60;99.90;;;;;;5134404;27;20500;-76
2023/05/25 01:37:00;;;;;;;10.77;3.95;;;11.60;99.90;;;;;;5134251;27;20042;-77
2023/05/25 01:39:25;;;;;;;13.63;4.50;;;11.60;99.90;;;;;;5134242;27;20051;-77
2023/05/25 01:41:51;;;;;;;10.85;3.88;;;11.60;99.90;;;;;;5134166;27;20092;-77
2023/05/25 01:44:17;;;;;;;13.13;4.63;;;11.70;99.90;;;;;;5133292;27;20058;-77
2023/05/25 01:46:43;;;;;;;12.40;4.57;;;11.70;99.90;;;;;;5134142;27;20046;-77
2023/05/25 01:49:21;;;;;;;13.07;4.30;;;11.70;99.90;;;;;;5135146;27;20047;-77
2023/05/25 01:52:25;;;;;;;11.77;4.38;;;11.70;99.90;;;;;;5134269;27;20058;-76
2023/05/25 01:54:53;;;;;;;12.90;3.92;;;11.60;99.90;;;;;;5131788;27;20064;-76
2023/05/25 01:57:19;;;;;;;17.38;4.68;;;11.60;99.90;;;;;;5135315;27;20066;-77
2023/05/25 01:59:46;;;;;;;15.15;3.97;;;11.60;99.90;;;;;;5134283;27;20499;-76
2023/05/25 02:02:18;;;;;;;13.25;4.68;;;11.50;99.90;;;;;;5133837;27;20447;-77
2023/05/25 02:04:47;;;;;;;10.13;4.10;;;11.50;99.90;;;;;;5133833;27;20062;-76
2023/05/25 02:07:13;;;;;;;10.10;4.03;;;11.50;99.90;;;;;;5133644;27;20043;-76
2023/05/25 02:09:38;;;;;;;14.10;4.32;;;11.50;99.90;;;;;;5133829;27;20379;-76
2023/05/25 02:12:05;;;;;;;10.57;3.58;;;11.50;99.90;;;;;;5133804;27;20087;-76
2023/05/25 02:14:30;;;;;;;13.30;4.90;;;11.50;99.90;;;;;;5133650;27;20047;-76
2023/05/25 02:16:56;;;;;;;12.85;4.10;;;11.50;99.90;;;;;;5133206;27;20058;-76
2023/05/25 02:19:22;;;;;;;15.98;4.22;;;11.50;99.90;;;;;;5133906;27;20054;-76
2023/05/25 02:21:48;;;;;;;10.75;4.50;;;11.50;99.90;;;;;;5133623;27;20043;-76
2023/05/25 02:24:13;;;;;;;13.43;4.90;;;11.50;99.90;;;;;;5134874;27;20045;-76
2023/05/25 02:26:39;;;;;;;17.15;4.80;;;11.50;99.90;;;;;;5133386;27;20051;-76
2023/05/25 02:29:05;;;;;;;12.77;4.28;;;11.40;99.90;;;;;;5133405;27;20482;-76
2023/05/25 02:31:31;;;;;;;11.55;4.07;;;11.50;99.90;;;;;;5133402;27;20039;-76
2023/05/25 02:33:57;;;;;;;9.88;4.00;;;11.50;99.90;;;;;;5133612;27;20103;-76
2023/05/25 02:36:23;;;;;;;12.18;4.38;;;11.40;99.90;;;;;;5133649;27;20047;-77
2023/05/25 02:38:50;;;;;;;10.75;4.32;;;11.50;99.90;;;;;;5133397;27;20383;-77
2023/05/25 02:41:19;;;;;;;19.30;5.20;;;11.50;99.90;;;;;;5133389;27;20051;-77
2023/05/25 02:43:44;;;;;;;13.80;4.32;;;11.40;99.90;;;;;;5133461;27;20129;-77
2023/05/25 02:46:10;;;;;;;11.75;4.57;;;11.40;99.90;;;;;;5133347;27;20125;-77
2023/05/25 02:48:36;;;;;;;15.15;5.90;;;11.40;99.90;;;;;;5133458;27;20088;-77
2023/05/25 02:51:02;;;;;;;12.32;4.40;;;11.40;99.90;;;;;;5133438;28;20051;-77
2023/05/25 02:53:28;;;;;;;10.70;4.90;;;11.40;99.90;;;;;;5133469;28;20040;-77
2023/05/25 02:55:55;;;;;;;11.38;4.18;;;11.40;99.90;;;;;;5132484;28;20506;-77
2023/05/25 02:58:21;;;;;;;11.85;4.18;;;11.40;99.90;;;;;;5133363;28;20043;-77
2023/05/25 03:00:50;;;;;;;12.63;4.60;;;11.40;99.90;;;;;;5134404;27;20051;-77
2023/05/25 03:03:16;;;;;;;12.48;4.55;;;11.40;99.90;;;;;;5132900;28;20055;-77
2023/05/25 03:05:42;;;;;;;12.57;4.40;;;11.40;99.90;;;;;;5133014;28;20043;-77
2023/05/25 03:08:13;;;;;;;9.88;3.80;;;11.40;99.90;;;;;;5133573;28;20126;-77
2023/05/25 03:10:39;;;;;;;13.77;4.47;;;11.40;99.90;;;;;;5132956;28;20083;-77
2023/05/25 03:13:05;;;;;;;12.38;4.47;;;11.40;99.90;;;;;;5133161;28;20089;-77
2023/05/25 03:15:31;;;;;;;9.75;4.13;;;11.30;99.90;;;;;;5132868;28;20494;-77
2023/05/25 03:18:00;;;;;;;13.45;4.80;;;11.40;99.90;;;;;;5132237;28;20043;-77
2023/05/25 03:20:26;;;;;;;12.55;4.25;;;11.30;99.90;;;;;;5131717;28;20062;-77
2023/05/25 03:22:52;;;;;;;13.55;4.80;;;11.40;99.90;;;;;;5132660;28;20050;-76
2023/05/25 03:25:17;;;;;;;12.10;4.72;;;11.40;99.90;;;;;;5133887;27;20051;-77
2023/05/25 03:27:43;;;;;;;12.40;5.00;;;11.40;99.90;;;;;;5132632;27;20055;-77
2023/05/25 03:30:15;;;;;;;11.85;4.13;;;11.40;99.90;;;;;;5135796;27;20069;-76
2023/05/25 03:32:40;;;;;;;13.05;4.60;;;11.40;99.90;;;;;;5136592;27;20490;-76
2023/05/25 03:35:06;;;;;;;10.32;4.18;;;11.40;99.90;;;;;;5136704;27;20118;-77
2023/05/25 03:37:32;;;;;;;10.60;4.50;;;11.40;99.90;;;;;;5136410;27;20043;-77
2023/05/25 03:40:08;;;;;;;11.80;4.78;;;11.50;99.90;;;;;;5136743;27;20504;-76
2023/05/25 03:42:34;;;;;;;12.10;4.18;;;11.50;99.90;;;;;;5136780;27;20079;-77
2023/05/25 03:45:00;;;;;;;11.65;4.63;;;11.50;99.90;;;;;;5136678;27;20111;-76
2023/05/25 03:47:29;;;;;;;17.98;4.40;;;11.50;99.90;;;;;;5136239;27;20452;-76
2023/05/25 03:49:54;;;;;;;11.23;4.45;;;11.50;99.90;;;;;;5136144;27;20039;-76
2023/05/25 03:52:20;;;;;;;10.75;4.63;;;11.50;99.90;;;;;;5136252;27;20053;-76
2023/05/25 03:54:46;;;;;;;10.30;4.22;;;11.50;99.90;;;;;;5136376;27;20051;-76
2023/05/25 03:57:11;;;;;;;10.32;4.30;;;11.40;99.90;;;;;;5136028;27;20058;-76
2023/05/25 03:59:37;;;;;;;12.10;4.35;;;11.50;99.90;;;;;;5136107;27;20035;-76
2023/05/25 04:02:08;;;;;;;12.95;4.93;;;11.50;99.90;;;;;;5136237;27;20062;-76
2023/05/25 04:04:34;;;;;;;15.20;4.53;;;11.50;99.90;;;;;;5136901;27;20083;-76
2023/05/25 04:07:00;;;;;;;10.48;4.38;;;11.50;99.90;;;;;;5135913;27;20082;-76
2023/05/25 04:09:26;;;;;;;14.32;5.93;;;11.50;99.90;;;;;;5135893;27;20054;-76
2023/05/25 04:11:51;;;;;;;10.95;4.35;;;11.50;99.90;;;;;;5136133;27;20047;-77
2023/05/25 04:14:19;;;;;;;15.50;5.35;;;11.50;99.90;;;;;;5137104;27;20070;-77
2023/05/25 04:16:45;;;;;;;12.73;4.90;;;11.50;99.90;;;;;;5135689;27;20047;-77
2023/05/25 04:19:11;;;;;;;11.27;4.65;;;11.50;99.90;;;;;;5135671;27;20130;-76
2023/05/25 04:21:36;;;;;;;9.95;4.47;;;11.50;99.90;;;;;;5136002;27;20042;-77
2023/05/25 04:24:06;;;;;;;15.65;4.03;;;11.50;99.90;;;;;;5135933;27;20538;-76
2023/05/25 04:26:32;;;;;;;12.38;5.53;;;11.60;99.90;;;;;;5135405;27;20047;-77
2023/05/25 04:29:04;;;;;;;15.05;4.28;;;11.60;99.90;;;;;;5135930;27;20099;-76
2023/05/25 04:31:29;;;;;;;12.68;4.28;;;11.70;99.90;;;;;;5135531;27;20088;-76
2023/05/25 04:33:55;;;;;;;12.93;5.35;;;11.60;99.90;;;;;;5135482;27;20051;-76
2023/05/25 04:36:22;;;;;;;10.90;4.82;;;11.70;99.90;;;;;;5135400;27;20039;-77
2023/05/25 04:38:50;;;;;;;16.75;4.80;;;11.70;99.90;;;;;;5135651;27;20096;-77
2023/05/25 04:41:19;;;;;;;12.88;4.30;;;11.70;99.90;;;;;;5135061;27;20047;-77
2023/05/25 04:43:49;;;;;;;10.23;4.30;;;11.80;99.90;;;;;;5135281;27;20060;-76
2023/05/25 04:46:15;;;;;;;9.63;4.18;;;11.80;99.90;;;;;;5136404;27;20051;-76
2023/05/25 04:48:42;;;;;;;12.65;4.25;;;11.90;99.90;;;;;;5135422;27;20035;-76
2023/05/25 04:51:08;;;;;;;10.95;4.45;;;11.90;99.90;;;;;;5135285;27;20554;-76
2023/05/25 04:53:36;;;;;;;8.57;4.32;;;12.00;99.90;;;;;;5135090;27;20043;-76
2023/05/25 04:56:03;;;;;;;9.55;4.30;;;12.00;99.90;;;;;;5135157;27;20051;-76
2023/05/25 04:58:32;;;;;;;11.23;4.55;;;12.00;99.90;;;;;;5134947;27;20054;-76
2023/05/25 05:00:58;;;;;;;14.30;3.80;;;12.10;99.90;;;;;;5134795;27;20478;-76
2023/05/25 05:03:25;;;;;;;12.45;3.75;;;12.10;99.90;;;;;;5134752;27;20101;-76
2023/05/25 05:05:52;;;;;;;8.18;3.40;;;12.20;99.90;;;;;;5134660;27;20054;-77
2023/05/25 05:08:18;;;;;;;10.25;3.38;;;12.20;99.90;;;;;;5135052;27;20100;-77
2023/05/25 05:10:44;;;;;;;13.15;4.05;;;12.20;99.90;;;;;;5134650;27;20489;-77
2023/05/25 05:13:10;;;;;;;13.07;4.53;;;12.30;99.90;;;;;;5134613;27;20047;-77
2023/05/25 05:15:38;;;;;;;13.70;3.70;;;12.30;99.90;;;;;;5134692;27;20183;-76
2023/05/25 05:18:05;;;;;;;14.70;4.55;;;12.30;99.90;;;;;;5134647;27;20047;-76
2023/05/25 05:20:30;;;;;;;12.07;4.57;;;12.40;99.90;;;;;;5135860;27;20486;-76
2023/05/25 05:22:56;;;;;;;9.52;3.95;;;12.40;99.90;;;;;;5134559;27;20050;-77
2023/05/25 05:25:21;;;;;;;14.52;4.35;;;12.50;99.90;;;;;;5134833;27;20103;-77
2023/05/25 05:27:47;;;;;;;14.95;3.78;;;12.50;99.90;;;;;;5134373;27;20410;-77
2023/05/25 05:30:13;;;;;;;15.25;3.53;;;12.50;99.90;;;;;;5134624;27;20153;-77
2023/05/25 05:32:41;;;;;;;13.50;4.00;;;12.60;99.90;;;;;;5134491;27;20126;-77
2023/05/25 05:35:07;;;;;;;14.75;3.60;;;12.60;99.90;;;;;;5134495;27;20043;-77
2023/05/25 05:37:33;;;;;;;16.17;3.72;;;12.60;99.90;;;;;;5134354;27;20039;-77
2023/05/25 05:39:59;;;;;;;14.35;3.90;;;12.70;99.90;;;;;;5134622;27;20039;-77
2023/05/25 05:42:27;;;;;;;12.18;3.70;;;12.80;99.90;;;;;;5135401;27;20391;-77
2023/05/25 05:44:53;;;;;;;19.65;3.85;;;12.80;99.90;;;;;;5134308;27;20047;-77
2023/05/25 05:47:18;;;;;;;28.92;4.40;;;12.80;99.90;;;;;;5135168;27;20096;-77
2023/05/25 05:49:44;;;;;;;18.48;4.25;;;12.80;99.90;;;;;;5135559;27;20039;-76
2023/05/25 05:52:10;;;;;;;10.75;3.33;;;12.90;99.90;;;;;;5133368;27;20043;-77
2023/05/25 05:54:35;;;;;;;15.40;3.65;;;12.90;99.90;;;;;;5135207;27;20083;-77
2023/05/25 05:57:02;;;;;;;15.05;3.25;;;12.90;99.90;;;;;;5133858;27;20035;-77
2023/05/25 05:59:27;;;;;;;23.15;4.20;;;12.90;99.90;;;;;;5133832;27;20035;-77
2023/05/25 06:01:53;;;;;;;18.15;3.88;;;12.90;99.90;;;;;;5133562;27;20062;-76
2023/05/25 06:04:24;;;;;;;14.43;3.90;;;13.00;99.90;;;;;;5133792;27;20050;-77
2023/05/25 06:06:49;;;;;;;14.48;3.35;;;13.00;99.90;;;;;;5133752;27;20405;-77
2023/05/25 06:09:16;;;;;;;12.70;3.75;;;13.10;99.90;;;;;;5133845;27;20043;-77
2023/05/25 06:11:42;;;;;;;14.00;3.47;;;13.10;99.90;;;;;;5133640;27;20043;-77
2023/05/25 06:14:07;;;;;;;16.80;3.78;;;13.10;99.90;;;;;;5133522;27;20046;-77
2023/05/25 06:16:33;;;;;;;18.60;4.60;;;13.20;99.90;;;;;;5133531;27;20042;-77
2023/05/25 06:18:59;;;;;;;14.13;3.88;;;13.20;99.90;;;;;;5133483;27;20041;-77
2023/05/25 06:21:25;;;;;;;15.48;4.13;;;13.20;99.90;;;;;;5133820;27;20131;-77
2023/05/25 06:23:50;;;;;;;17.48;5.05;;;13.30;99.90;;;;;;5133622;27;20436;-77
2023/05/25 06:26:16;;;;;;;16.02;4.10;;;13.50;99.90;;;;;;5133263;27;20511;-77
2023/05/25 06:28:42;;;;;;;24.70;4.28;;;13.60;99.90;;;;;;5133633;27;20047;-77
2023/05/25 06:31:07;;;;;;;16.42;3.70;;;13.70;99.90;;;;;;5133419;27;20094;-77
2023/05/25 06:33:33;;;;;;;18.95;4.30;;;13.70;99.90;;;;;;5133502;27;20087;-76
2023/05/25 06:36:01;;;;;;;20.23;4.80;;;13.80;99.90;;;;;;5133473;27;20043;-77
2023/05/25 06:38:27;;;;;;;27.13;3.90;;;13.90;99.90;;;;;;5133192;27;20043;-77
2023/05/25 06:40:53;;;;;;;19.02;4.13;;;14.10;99.90;;;;;;5133250;27;20054;-78
2023/05/25 06:43:19;;;;;;;18.15;3.83;;;14.10;99.90;;;;;;5133160;27;20035;-77
2023/05/25 06:45:45;;;;;;;22.02;4.07;;;14.10;99.90;;;;;;5133433;27;20043;-77
2023/05/25 06:48:11;;;;;;;17.02;4.18;;;14.30;99.90;;;;;;5133172;27;20475;-77
2023/05/25 06:50:36;;;;;;;19.15;3.70;;;14.30;99.90;;;;;;5126372;27;20098;-76
2023/05/25 06:53:03;;;;;;;18.27;4.53;;;14.30;99.90;;;;;;5149187;27;20539;-75
2023/05/25 06:55:28;;;;;;;15.88;4.28;;;14.50;99.90;;;;;;5112553;28;20068;-74
2023/05/25 06:57:55;;;;;;;13.98;3.30;;;14.70;99.90;;;;;;5112333;28;20043;-74
2023/05/25 07:00:20;;;;;;;16.98;4.00;;;14.90;99.90;;;;;;5112370;28;20043;-74
2023/05/25 07:02:46;;;;;;;17.65;3.90;;;15.10;99.90;;;;;;5112124;28;20103;-81
2023/05/25 07:05:15;;;;;;;17.33;4.20;;;15.20;99.90;;;;;;5098718;28;20048;-75
2023/05/25 07:07:41;;;;;;;15.98;3.70;;;15.10;99.90;;;;;;5117935;28;20052;-76
2023/05/25 07:10:07;;;;;;;14.63;3.22;;;15.10;99.90;;;;;;5117584;28;20406;-75
2023/05/25 07:12:33;;;;;;;16.75;3.90;;;15.30;99.90;;;;;;5116460;28;20059;-75
2023/05/25 07:14:58;;;;;;;17.88;4.80;;;15.30;99.90;;;;;;5116575;28;20051;-79
2023/05/25 07:17:25;;;;;;;18.63;4.53;;;15.30;99.90;;;;;;5116357;27;20131;-76
2023/05/25 07:19:51;;;;;;;17.80;4.05;;;15.40;99.90;;;;;;5127338;27;20043;-76
2023/05/25 07:22:17;;;;;;;15.13;4.18;;;15.60;99.90;;;;;;5116371;28;20142;-76
2023/05/25 07:24:46;;;;;;;17.10;3.25;;;15.80;99.90;;;;;;5115983;28;20051;-75
2023/05/25 07:27:13;;;;;;;20.00;4.15;;;15.90;99.90;;;;;;5115989;28;20067;-75
2023/05/25 07:29:39;;;;;;;20.10;4.07;;;16.00;99.90;;;;;;5116296;28;20039;-75
2023/05/25 07:32:05;;;;;;;18.40;3.42;;;16.10;99.90;;;;;;5115927;28;20570;-76
2023/05/25 07:34:32;;;;;;;20.27;4.80;;;16.00;99.90;;;;;;5116186;28;20048;-76
2023/05/25 07:36:58;;;;;;;21.58;5.35;;;15.90;99.90;;;;;;5116218;28;20055;-76
2023/05/25 07:39:24;;;;;;;17.55;3.85;;;16.00;99.90;;;;;;5117481;27;20043;-75
2023/05/25 07:41:49;;;;;;;16.80;4.05;;;16.20;99.90;;;;;;5117472;28;20039;-76
2023/05/25 07:44:15;;;;;;;23.33;4.32;;;16.30;99.90;;;;;;5116074;28;20044;-76
2023/05/25 07:46:42;;;;;;;19.08;3.38;;;16.30;99.90;;;;;;5115799;28;20479;-76
2023/05/25 07:49:14;;;;;;;16.65;3.60;;;16.40;99.90;;;;;;5116110;28;20039;-76
2023/05/25 07:51:46;;;;;;;19.75;4.13;;;16.50;99.90;;;;;;5116155;28;20104;-76
2023/05/25 07:54:11;;;;;;;12.00;3.00;;;16.60;99.90;;;;;;5115631;28;20139;-78
2023/05/25 07:56:38;;;;;;;14.68;3.38;;;16.70;99.90;;;;;;5115661;28;20493;-81
2023/05/25 07:59:03;;;;;;;17.08;3.35;;;16.60;99.90;;;;;;5115805;28;20039;-77
2023/05/25 08:01:30;;;;;;;18.45;3.80;;;16.60;99.90;;;;;;5116651;28;20043;-77
2023/05/25 08:03:59;;;;;;;20.30;3.88;;;16.70;99.90;;;;;;5115550;28;20044;-77
2023/05/25 08:06:24;;;;;;;18.17;3.67;;;16.60;99.90;;;;;;5115381;28;20402;-77
2023/05/25 08:08:50;;;;;;;19.08;4.75;;;16.90;99.90;;;;;;5115707;28;20047;-78
2023/05/25 08:11:16;;;;;;;18.98;3.75;;;16.90;99.90;;;;;;5115494;28;20050;-78
2023/05/25 08:13:42;;;;;;;16.80;3.60;;;16.90;99.90;;;;;;5115406;28;20052;-78
2023/05/25 08:16:08;;;;;;;17.38;3.60;;;16.90;99.90;;;;;;5114665;28;20048;-77
2023/05/25 08:18:34;;;;;;;24.55;4.70;;;16.90;99.90;;;;;;5120291;27;20100;-77
2023/05/25 08:21:00;;;;;;;20.90;3.97;;;16.90;99.90;;;;;;5120641;27;20055;-76
2023/05/25 08:23:26;;;;;;;16.48;3.88;;;17.10;99.90;;;;;;5114867;28;20501;-76
2023/05/25 08:25:52;;;;;;;17.05;3.70;;;17.10;99.90;;;;;;5114737;28;20126;-76
2023/05/25 08:28:21;;;;;;;25.85;5.43;;;17.30;99.90;;;;;;5114877;28;20384;-76
2023/05/25 08:30:49;;;;;;;27.92;5.45;;;17.30;99.90;;;;;;5114817;28;20047;-76
2023/05/25 08:33:15;;;;;;;20.00;3.95;;;17.50;99.90;;;;;;5116233;28;20075;-76
2023/05/25 08:35:41;;;;;;;22.45;4.07;;;17.60;99.90;;;;;;5114588;28;20079;-76
2023/05/25 08:38:08;;;;;;;18.90;4.70;;;17.50;99.90;;;;;;5114999;28;20062;-76
2023/05/25 08:40:33;;;;;;;21.25;3.83;;;17.60;99.90;;;;;;5114320;28;20410;-76
2023/05/25 08:42:59;;;;;;;21.00;3.55;;;17.70;99.90;;;;;;5114667;28;20793;-75
2023/05/25 08:45:25;;;;;;;14.60;3.22;;;17.80;99.90;;;;;;5114794;28;20055;-75
2023/05/25 08:47:53;;;;;;;19.02;4.10;;;18.00;99.90;;;;;;5114308;28;20383;-75
2023/05/25 08:50:27;;;;;;;20.25;3.85;;;17.80;99.90;;;;;;5114312;28;20479;-75
2023/05/25 08:52:55;;;;;;;20.20;3.95;;;17.70;99.90;;;;;;5114152;28;20418;-76
2023/05/25 08:55:29;;;;;;;22.08;4.68;;;17.50;99.90;;;;;;5115567;27;20482;-77
2023/05/25 08:58:19;;;;;;;14.07;3.20;;;17.60;99.90;;;;;;5114346;28;20123;-77
2023/05/25 09:00:59;;;;;;;14.63;3.03;;;17.80;99.90;;;;;;5114300;28;20050;-76
2023/05/25 09:03:27;;;;;;;19.77;4.30;;;17.80;99.90;;;;;;5113876;28;20138;-76
2023/05/25 09:05:55;;;;;;;18.77;3.75;;;17.70;99.90;;;;;;5114135;28;20060;-76
2023/05/25 09:08:22;;;;;;;25.33;4.40;;;17.70;99.90;;;;;;5114146;28;20079;-76
2023/05/25 09:10:50;;;;;;;25.58;3.92;;;17.70;99.90;;;;;;5114265;28;20040;-76
2023/05/25 09:13:16;;;;;;;20.23;4.32;;;17.50;99.90;;;;;;5113786;28;20407;-76
2023/05/25 09:15:43;;;;;;;25.08;4.95;;;17.40;99.90;;;;;;5113874;28;20456;-75
2023/05/25 09:18:08;;;;;;;17.30;4.32;;;17.20;99.90;;;;;;5114225;28;20048;-76
2023/05/25 09:20:34;;;;;;;16.13;3.30;;;17.10;99.90;;;;;;5113820;28;20414;-76
2023/05/25 09:23:01;;;;;;;15.23;3.58;;;17.20;99.90;;;;;;5113588;28;20043;-75
2023/05/25 09:25:28;;;;;;;15.20;4.07;;;17.30;99.90;;;;;;5113612;28;20059;-75
2023/05/25 09:27:57;;;;;;;21.08;3.88;;;17.20;99.90;;;;;;5112764;28;20044;-76
2023/05/25 09:30:23;;;;;;;15.93;4.28;;;17.30;99.90;;;;;;5113972;28;20075;-76
2023/05/25 09:32:50;;;;;;;14.65;3.58;;;17.30;99.90;;;;;;5113831;28;20062;-76
2023/05/25 09:35:16;;;;;;;20.23;3.75;;;17.60;99.90;;;;;;5113366;28;20071;-77
2023/05/25 09:37:42;;;;;;;18.52;4.30;;;17.50;99.90;;;;;;5114688;28;20085;-77
2023/05/25 09:40:09;;;;;;;20.20;4.28;;;17.50;99.90;;;;;;5113369;28;20118;-76
2023/05/25 09:42:36;;;;;;;20.55;3.85;;;17.60;99.90;;;;;;5113522;28;20184;-77
2023/05/25 09:45:03;;;;;;;23.25;3.70;;;17.80;99.90;;;;;;5113449;28;20053;-77
2023/05/25 09:47:29;;;;;;;17.08;4.15;;;17.90;99.90;;;;;;5113139;28;20051;-76
2023/05/25 09:49:55;;;;;;;17.95;3.95;;;18.10;99.90;;;;;;5119851;27;20043;-77
2023/05/25 09:52:21;;;;;;;26.75;4.45;;;18.30;99.90;;;;;;5135240;27;20047;-77
2023/05/25 09:54:48;;;;;;;23.33;4.13;;;18.30;99.90;;;;;;5133984;27;20047;-77
2023/05/25 09:57:15;;;;;;;23.25;4.75;;;18.40;99.90;;;;;;5133688;27;20054;-76
2023/05/25 09:59:42;;;;;;;19.88;3.92;;;18.40;99.90;;;;;;5133923;27;20041;-77
2023/05/25 10:02:08;;;;;;;18.73;4.18;;;18.20;99.90;;;;;;5133645;27;20050;-76
2023/05/25 10:04:34;;;;;;;18.08;4.00;;;18.40;99.90;;;;;;5133590;27;20553;-75
2023/05/25 10:07:00;;;;;;;18.00;4.03;;;18.30;99.90;;;;;;5133422;27;20047;-76
2023/05/25 10:09:29;;;;;;;16.27;3.83;;;18.50;99.90;;;;;;5133423;27;20038;-76
2023/05/25 10:12:00;;;;;;;16.77;4.50;;;18.30;99.90;;;;;;5134656;27;20039;-75
2023/05/25 10:14:27;;;;;;;21.50;4.05;;;18.20;99.90;;;;;;5133480;27;20394;-76
2023/05/25 10:16:54;;;;;;;17.15;3.15;;;18.20;99.90;;;;;;5133369;27;20105;-75
2023/05/25 10:19:25;;;;;;;19.85;4.68;;;18.30;99.90;;;;;;5134530;27;20047;-77
2023/05/25 10:21:57;;;;;;;22.20;3.88;;;18.10;99.90;;;;;;5134584;27;20573;-76
2023/05/25 10:24:33;;;;;;;20.27;4.32;;;18.30;99.90;;;;;;5133276;27;20114;-77
2023/05/25 10:27:02;;;;;;;16.02;3.15;;;18.10;99.90;;;;;;5134628;27;20042;-77
2023/05/25 10:29:29;;;;;;;15.68;3.65;;;18.30;99.90;;;;;;5133088;27;20047;-77
2023/05/25 10:31:57;;;;;;;17.38;3.90;;;18.50;99.90;;;;;;5132878;27;20043;-78
2023/05/25 10:34:23;;;;;;;16.95;3.95;;;18.50;99.90;;;;;;5134214;27;20386;-77
2023/05/25 10:36:50;;;;;;;19.35;4.13;;;18.50;99.90;;;;;;5134285;27;20482;-78
2023/05/25 10:39:16;;;;;;;20.55;4.32;;;18.70;99.90;;;;;;5134333;27;20118;-76
2023/05/25 10:41:42;;;;;;;16.95;3.80;;;18.80;99.90;;;;;;5132934;27;20054;-77
2023/05/25 10:44:08;;;;;;;18.10;4.38;;;18.60;99.90;;;;;;5132745;27;20043;-76
2023/05/25 10:46:35;;;;;;;15.73;3.92;;;18.20;99.90;;;;;;5134060;27;20384;-77
2023/05/25 10:49:01;;;;;;;20.77;4.22;;;18.40;99.90;;;;;;5133142;27;20083;-77
2023/05/25 10:51:37;;;;;;;20.05;4.20;;;18.40;99.90;;;;;;5133216;27;20513;-76
2023/05/25 10:54:03;;;;;;;16.15;3.95;;;18.50;99.90;;;;;;5134105;27;20039;-76
2023/05/25 10:56:29;;;;;;;17.88;3.65;;;18.60;99.90;;;;;;5134441;27;20039;-76
2023/05/25 10:58:55;;;;;;;19.20;4.00;;;18.30;99.90;;;;;;5133984;27;20035;-76
2023/05/25 11:01:21;;;;;;;15.50;3.80;;;18.40;99.90;;;;;;5132745;28;20047;-75
2023/05/25 11:03:57;;;;;;;17.52;4.10;;;18.60;99.90;;;;;;5132578;28;20051;-74
2023/05/25 11:06:39;;;;;;;16.15;4.25;;;18.50;99.90;;;;;;5133197;28;20050;-76
2023/05/25 11:09:05;;;;;;;17.02;3.80;;;18.50;99.90;;;;;;5133790;27;20539;-76
2023/05/25 11:11:46;;;;;;;21.00;3.58;;;18.40;99.90;;;;;;5132899;28;20047;-78
2023/05/25 11:14:30;;;;;;;16.80;3.75;;;18.20;99.90;;;;;;5133005;28;20379;-77
2023/05/25 11:17:17;;;;;;;20.15;3.33;;;18.20;99.90;;;;;;5132824;28;20505;-78
2023/05/25 11:19:53;;;;;;;20.50;4.97;;;18.10;99.90;;;;;;5133071;28;20043;-78
2023/05/25 11:22:20;;;;;;;20.42;4.50;;;18.00;99.90;;;;;;5132747;28;20515;-78
2023/05/25 11:24:50;;;;;;;14.18;3.58;;;18.00;99.90;;;;;;5133015;28;20062;-78
2023/05/25 11:27:23;;;;;;;25.65;4.80;;;17.90;99.90;;;;;;5133157;28;20047;-77
2023/05/25 11:29:53;;;;;;;31.63;4.97;;;18.00;99.90;;;;;;5132709;28;20502;-77
2023/05/25 11:32:22;;;;;;;18.27;4.43;;;17.80;99.90;;;;;;5132966;28;20047;-78
2023/05/25 11:34:50;;;;;;;25.88;4.47;;;17.60;99.90;;;;;;5133815;27;20044;-77
2023/05/25 11:37:20;;;;;;;20.02;4.15;;;17.80;99.90;;;;;;5133698;27;20050;-77
2023/05/25 11:40:07;;;;;;;15.23;3.53;;;18.00;99.90;;;;;;5132961;28;20047;-77
2023/05/25 11:42:32;;;;;;;22.25;4.45;;;18.20;99.90;;;;;;5133686;27;20142;-78
2023/05/25 11:45:02;;;;;;;25.67;4.97;;;18.20;99.90;;;;;;5132735;28;20506;-77
2023/05/25 11:47:28;;;;;;;21.35;4.28;;;18.10;99.90;;;;;;5132008;28;20063;-77
2023/05/25 11:49:55;;;;;;;15.10;4.45;;;18.10;99.90;;;;;;5133601;27;20043;-78
2023/05/25 11:52:23;;;;;;;19.77;3.67;;;18.30;99.90;;;;;;5136329;27;20047;-78
2023/05/25 11:54:49;;;;;;;17.92;3.85;;;18.30;99.90;;;;;;5136236;27;20043;-76
2023/05/25 11:57:23;;;;;;;24.15;4.97;;;18.30;99.90;;;;;;5137729;27;20041;-78
2023/05/25 11:59:53;;;;;;;24.42;4.57;;;18.10;99.90;;;;;;5136496;27;20467;-79
2023/05/25 12:02:25;;;;;;;20.88;4.22;;;18.30;99.90;;;;;;5137495;27;20151;-78
2023/05/25 12:04:56;;;;;;;29.42;4.80;;;18.20;99.90;;;;;;5137397;27;20048;-77
2023/05/25 12:07:22;;;;;;;23.45;4.75;;;18.40;99.90;;;;;;5137451;27;20509;-77
2023/05/25 12:09:48;;;;;;;20.38;4.78;;;18.50;99.90;;;;;;5137475;27;20043;-78
2023/05/25 12:12:14;;;;;;;19.05;4.95;;;18.50;99.90;;;;;;5137126;27;20379;-77
2023/05/25 12:14:49;;;;;;;24.75;4.70;;;18.60;99.90;;;;;;5137416;27;20035;-77
2023/05/25 12:17:16;;;;;;;21.95;4.13;;;18.70;99.90;;;;;;5136071;27;20538;-77
2023/05/25 12:19:43;;;;;;;18.75;3.83;;;18.70;99.90;;;;;;5135929;27;20043;-77
2023/05/25 12:22:10;;;;;;;19.65;3.85;;;18.70;99.90;;;;;;5135796;27;20047;-78
2023/05/25 12:24:36;;;;;;;21.40;4.35;;;18.50;99.90;;;;;;5135656;27;20050;-78
2023/05/25 12:27:03;;;;;;;23.83;4.50;;;18.60;99.90;;;;;;5136882;27;20035;-78
2023/05/25 12:29:29;;;;;;;28.40;4.50;;;18.50;99.90;;;;;;5135978;27;20058;-78
2023/05/25 12:32:07;;;;;;;19.17;4.45;;;18.70;99.90;;;;;;5135599;27;20043;-78
2023/05/25 12:34:33;;;;;;;17.67;3.65;;;18.60;99.90;;;;;;5135756;27;20048;-78
2023/05/25 12:37:00;;;;;;;23.48;4.80;;;18.30;99.90;;;;;;5135483;27;20439;-78
2023/05/25 12:39:37;;;;;;;18.63;4.07;;;18.30;99.90;;;;;;5135387;27;20394;-77
2023/05/25 12:42:03;;;;;;;28.35;4.53;;;18.50;99.90;;;;;;5135386;27;20083;-78